Skip Navigation Links Skip Navigation Links

Current Weather

Nikolai, Alaska

For information only: do not use for flight planning or navigation.
Latest weather
Observation time Friday, December 3, 2021 12:01 AM AKST
Local time Friday, December 3, 2021 12:33 AM AKST
Flight conditions Visual Meteorological Conditions
Winds
Wind direction Northeast (50°)
Wind speed 7 mph
Visibility 10 mi.
Sky condition
Ceiling unlimited
Sky clear
Temperature -16°F
Dewpoint -20°F
Altimeter 30.45 in.Hg
Pressure change last 3 hours-0.01 in.Hg
Pressure rising more slowly
Derived measurements
Relative humidity 81%
Wind chill -32°F
Density altitude -5623 ft.
Sea-level pressure 30.51 in.Hg
Climate data
Temperature minimum, last 24 hours -16°F
Temperature maximum, last 24 hours -16°F
Remarks
Fully automated report.
Automated weather observing station with precipitation discriminator.
Freezing rain sensor not operating.
METAR PAFS 030901Z AUTO 05006KT 10SM CLR M27/M29 A3045 RMK AO2 SLP333 T12671289 412671267 51003 FZRANO

Settings

Location code

InnerDrive.Weather 4.0.6770.0 Release CLR 4.0.30319.42000
Copyright ©2018 Inner Drive Technology. All rights reserved. Portions Copyright ©1986-2018 David Braverman.

Find weather

Site navigation


Skip Navigation Links

Place info

Page info

PayPal - The safer, easier way to pay online!

Return home.

Copyright ©2021 Inner Drive Technology. Purveyors of fine, hand-crafted computer software. Page printed 2021-12-03T09:33:54 UTC.